sensor_id;sensor_type;location;lat;lon;timestamp;temperature;humidity
75824;DHT22;64457;51.976;9.834;2023-03-21T00:00:43;12.00;96.00
75824;DHT22;64457;51.976;9.834;2023-03-21T00:03:10;12.00;96.00
75824;DHT22;64457;51.976;9.834;2023-03-21T00:05:39;11.70;96.50
75824;DHT22;64457;51.976;9.834;2023-03-21T00:08:07;11.70;96.80
75824;DHT22;64457;51.976;9.834;2023-03-21T00:10:34;11.70;96.80
75824;DHT22;64457;51.976;9.834;2023-03-21T00:13:01;11.70;97.10
75824;DHT22;64457;51.976;9.834;2023-03-21T00:15:30;11.70;97.30
75824;DHT22;64457;51.976;9.834;2023-03-21T00:17:59;11.60;97.40
75824;DHT22;64457;51.976;9.834;2023-03-21T00:20:29;11.60;97.90
75824;DHT22;64457;51.976;9.834;2023-03-21T00:22:59;11.60;97.90
75824;DHT22;64457;51.976;9.834;2023-03-21T00:25:26;11.70;97.80
75824;DHT22;64457;51.976;9.834;2023-03-21T00:27:53;11.70;97.80
75824;DHT22;64457;51.976;9.834;2023-03-21T00:30:20;11.70;98.00
75824;DHT22;64457;51.976;9.834;2023-03-21T00:32:48;11.40;98.40
75824;DHT22;64457;51.976;9.834;2023-03-21T00:35:17;11.30;98.70
75824;DHT22;64457;51.976;9.834;2023-03-21T00:37:44;11.40;98.90
75824;DHT22;64457;51.976;9.834;2023-03-21T00:40:12;11.50;98.70
75824;DHT22;64457;51.976;9.834;2023-03-21T00:42:39;11.30;98.90
75824;DHT22;64457;51.976;9.834;2023-03-21T00:45:07;11.40;99.10
75824;DHT22;64457;51.976;9.834;2023-03-21T00:47:35;11.50;99.10
75824;DHT22;64457;51.976;9.834;2023-03-21T00:50:03;11.30;99.40
75824;DHT22;64457;51.976;9.834;2023-03-21T00:52:33;11.20;99.80
75824;DHT22;64457;51.976;9.834;2023-03-21T00:55:01;11.10;99.90
75824;DHT22;64457;51.976;9.834;2023-03-21T00:57:28;11.30;99.90
75824;DHT22;64457;51.976;9.834;2023-03-21T00:59:55;11.50;99.80
75824;DHT22;64457;51.976;9.834;2023-03-21T01:02:23;11.70;99.40
75824;DHT22;64457;51.976;9.834;2023-03-21T01:04:51;11.90;99.20
75824;DHT22;64457;51.976;9.834;2023-03-21T01:07:19;12.00;98.90
75824;DHT22;64457;51.976;9.834;2023-03-21T01:09:47;12.00;99.00
75824;DHT22;64457;51.976;9.834;2023-03-21T01:12:15;11.70;99.30
75824;DHT22;64457;51.976;9.834;2023-03-21T01:14:42;11.70;99.50
75824;DHT22;64457;51.976;9.834;2023-03-21T01:17:09;11.80;99.30
75824;DHT22;64457;51.976;9.834;2023-03-21T01:19:37;11.90;99.20
75824;DHT22;64457;51.976;9.834;2023-03-21T01:22:04;11.90;99.10
75824;DHT22;64457;51.976;9.834;2023-03-21T01:24:31;11.80;99.30
75824;DHT22;64457;51.976;9.834;2023-03-21T01:27:00;11.50;99.70
75824;DHT22;64457;51.976;9.834;2023-03-21T01:29:28;11.40;99.90
75824;DHT22;64457;51.976;9.834;2023-03-21T01:31:55;11.50;99.90
75824;DHT22;64457;51.976;9.834;2023-03-21T01:34:22;11.70;99.60
75824;DHT22;64457;51.976;9.834;2023-03-21T01:36:49;11.80;99.30
75824;DHT22;64457;51.976;9.834;2023-03-21T01:39:17;11.90;98.90
75824;DHT22;64457;51.976;9.834;2023-03-21T01:41:44;12.10;98.50
75824;DHT22;64457;51.976;9.834;2023-03-21T01:44:17;12.20;98.30
75824;DHT22;64457;51.976;9.834;2023-03-21T01:46:46;12.40;98.20
75824;DHT22;64457;51.976;9.834;2023-03-21T01:49:19;12.60;97.50
75824;DHT22;64457;51.976;9.834;2023-03-21T01:51:51;12.60;97.50
75824;DHT22;64457;51.976;9.834;2023-03-21T01:54:23;12.50;97.60
75824;DHT22;64457;51.976;9.834;2023-03-21T01:56:55;12.60;97.70
75824;DHT22;64457;51.976;9.834;2023-03-21T01:59:29;12.60;97.20
75824;DHT22;64457;51.976;9.834;2023-03-21T02:02:02;12.70;97.00
75824;DHT22;64457;51.976;9.834;2023-03-21T02:04:32;12.80;97.20
75824;DHT22;64457;51.976;9.834;2023-03-21T02:07:04;12.90;96.70
75824;DHT22;64457;51.976;9.834;2023-03-21T02:09:36;13.00;97.10
75824;DHT22;64457;51.976;9.834;2023-03-21T02:12:05;13.00;97.00
75824;DHT22;64457;51.976;9.834;2023-03-21T02:14:37;13.00;97.00
75824;DHT22;64457;51.976;9.834;2023-03-21T02:17:11;12.60;97.50
75824;DHT22;64457;51.976;9.834;2023-03-21T02:23:26;12.30;98.20
75824;DHT22;64457;51.976;9.834;2023-03-21T02:26:42;12.10;98.40
75824;DHT22;64457;51.976;9.834;2023-03-21T02:29:48;12.20;98.30
75824;DHT22;64457;51.976;9.834;2023-03-21T02:32:40;12.50;98.20
75824;DHT22;64457;51.976;9.834;2023-03-21T02:35:31;12.30;98.10
75824;DHT22;64457;51.976;9.834;2023-03-21T02:38:06;12.20;98.50
75824;DHT22;64457;51.976;9.834;2023-03-21T02:40:39;12.30;98.20
75824;DHT22;64457;51.976;9.834;2023-03-21T02:43:14;12.40;98.00
75824;DHT22;64457;51.976;9.834;2023-03-21T02:45:48;12.50;97.90
75824;DHT22;64457;51.976;9.834;2023-03-21T02:48:22;12.40;98.00
75824;DHT22;64457;51.976;9.834;2023-03-21T02:50:54;12.50;98.00
75824;DHT22;64457;51.976;9.834;2023-03-21T02:53:27;12.20;97.90
75824;DHT22;64457;51.976;9.834;2023-03-21T02:55:58;12.30;97.90
75824;DHT22;64457;51.976;9.834;2023-03-21T02:58:27;12.70;97.70
75824;DHT22;64457;51.976;9.834;2023-03-21T03:00:56;12.80;97.30
75824;DHT22;64457;51.976;9.834;2023-03-21T03:03:23;12.90;96.80
75824;DHT22;64457;51.976;9.834;2023-03-21T03:05:54;12.80;96.80
75824;DHT22;64457;51.976;9.834;2023-03-21T03:08:33;12.80;96.80
75824;DHT22;64457;51.976;9.834;2023-03-21T03:11:15;12.50;97.30
75824;DHT22;64457;51.976;9.834;2023-03-21T03:13:55;12.40;97.50
75824;DHT22;64457;51.976;9.834;2023-03-21T03:16:37;12.40;97.90
75824;DHT22;64457;51.976;9.834;2023-03-21T03:19:10;12.40;97.60
75824;DHT22;64457;51.976;9.834;2023-03-21T03:21:44;12.10;98.10
75824;DHT22;64457;51.976;9.834;2023-03-21T03:24:20;11.90;98.30
75824;DHT22;64457;51.976;9.834;2023-03-21T03:26:52;12.00;98.30
75824;DHT22;64457;51.976;9.834;2023-03-21T03:29:24;12.20;98.00
75824;DHT22;64457;51.976;9.834;2023-03-21T03:31:55;12.30;97.80
75824;DHT22;64457;51.976;9.834;2023-03-21T03:34:27;12.40;97.80
75824;DHT22;64457;51.976;9.834;2023-03-21T03:36:59;12.50;97.60
75824;DHT22;64457;51.976;9.834;2023-03-21T03:39:34;12.50;97.70
75824;DHT22;64457;51.976;9.834;2023-03-21T03:42:06;12.50;98.00
75824;DHT22;64457;51.976;9.834;2023-03-21T03:44:35;12.40;97.90
75824;DHT22;64457;51.976;9.834;2023-03-21T03:47:05;12.40;97.80
75824;DHT22;64457;51.976;9.834;2023-03-21T03:49:37;12.50;97.80
75824;DHT22;64457;51.976;9.834;2023-03-21T03:52:08;12.50;97.40
75824;DHT22;64457;51.976;9.834;2023-03-21T03:54:42;12.50;97.80
75824;DHT22;64457;51.976;9.834;2023-03-21T03:57:11;12.50;97.70
75824;DHT22;64457;51.976;9.834;2023-03-21T03:59:41;12.60;97.90
75824;DHT22;64457;51.976;9.834;2023-03-21T04:02:09;12.40;98.00
75824;DHT22;64457;51.976;9.834;2023-03-21T04:04:37;12.30;98.20
75824;DHT22;64457;51.976;9.834;2023-03-21T04:07:04;12.40;98.20
75824;DHT22;64457;51.976;9.834;2023-03-21T04:09:33;12.50;98.10
75824;DHT22;64457;51.976;9.834;2023-03-21T04:12:03;12.60;97.80
75824;DHT22;64457;51.976;9.834;2023-03-21T04:14:30;12.40;98.00
75824;DHT22;64457;51.976;9.834;2023-03-21T04:16:57;12.20;98.20
75824;DHT22;64457;51.976;9.834;2023-03-21T04:19:24;12.10;98.40
75824;DHT22;64457;51.976;9.834;2023-03-21T04:21:52;12.00;98.60
75824;DHT22;64457;51.976;9.834;2023-03-21T04:24:19;12.10;98.60
75824;DHT22;64457;51.976;9.834;2023-03-21T04:26:46;12.20;98.20
75824;DHT22;64457;51.976;9.834;2023-03-21T04:29:15;12.40;98.10
75824;DHT22;64457;51.976;9.834;2023-03-21T04:31:42;12.60;97.70
75824;DHT22;64457;51.976;9.834;2023-03-21T04:34:10;12.70;97.60
75824;DHT22;64457;51.976;9.834;2023-03-21T04:36:38;12.70;97.30
75824;DHT22;64457;51.976;9.834;2023-03-21T04:39:07;12.70;97.00
75824;DHT22;64457;51.976;9.834;2023-03-21T04:41:37;12.80;97.20
75824;DHT22;64457;51.976;9.834;2023-03-21T04:44:05;12.80;96.90
75824;DHT22;64457;51.976;9.834;2023-03-21T04:46:34;12.80;96.90
75824;DHT22;64457;51.976;9.834;2023-03-21T04:49:02;12.80;97.10
75824;DHT22;64457;51.976;9.834;2023-03-21T04:51:29;12.90;97.00
75824;DHT22;64457;51.976;9.834;2023-03-21T04:53:57;12.90;96.90
75824;DHT22;64457;51.976;9.834;2023-03-21T04:56:24;12.80;96.80
75824;DHT22;64457;51.976;9.834;2023-03-21T04:58:57;12.50;97.20
75824;DHT22;64457;51.976;9.834;2023-03-21T05:01:24;12.40;97.30
75824;DHT22;64457;51.976;9.834;2023-03-21T05:03:57;12.40;97.60
75824;DHT22;64457;51.976;9.834;2023-03-21T05:06:25;12.50;97.50
75824;DHT22;64457;51.976;9.834;2023-03-21T05:08:52;12.50;97.30
75824;DHT22;64457;51.976;9.834;2023-03-21T05:11:21;12.40;97.50
75824;DHT22;64457;51.976;9.834;2023-03-21T05:13:48;12.20;98.00
75824;DHT22;64457;51.976;9.834;2023-03-21T05:16:15;12.10;98.00
75824;DHT22;64457;51.976;9.834;2023-03-21T05:18:42;12.10;97.90
75824;DHT22;64457;51.976;9.834;2023-03-21T05:21:11;12.20;97.90
75824;DHT22;64457;51.976;9.834;2023-03-21T05:23:42;12.40;97.60
75824;DHT22;64457;51.976;9.834;2023-03-21T05:26:09;12.60;97.40
75824;DHT22;64457;51.976;9.834;2023-03-21T05:28:36;12.60;97.30
75824;DHT22;64457;51.976;9.834;2023-03-21T05:31:05;12.70;97.00
75824;DHT22;64457;51.976;9.834;2023-03-21T05:33:33;12.70;96.80
75824;DHT22;64457;51.976;9.834;2023-03-21T05:36:00;12.60;96.90
75824;DHT22;64457;51.976;9.834;2023-03-21T05:38:29;12.60;97.00
75824;DHT22;64457;51.976;9.834;2023-03-21T05:40:56;12.60;96.90
75824;DHT22;64457;51.976;9.834;2023-03-21T05:43:23;12.50;97.20
75824;DHT22;64457;51.976;9.834;2023-03-21T05:45:50;12.50;97.20
75824;DHT22;64457;51.976;9.834;2023-03-21T05:48:17;12.50;97.40
75824;DHT22;64457;51.976;9.834;2023-03-21T05:50:45;12.60;97.00
75824;DHT22;64457;51.976;9.834;2023-03-21T05:53:12;12.70;96.60
75824;DHT22;64457;51.976;9.834;2023-03-21T05:55:40;12.80;96.60
75824;DHT22;64457;51.976;9.834;2023-03-21T05:58:07;13.00;96.30
75824;DHT22;64457;51.976;9.834;2023-03-21T06:00:35;13.10;95.80
75824;DHT22;64457;51.976;9.834;2023-03-21T06:03:02;13.10;95.80
75824;DHT22;64457;51.976;9.834;2023-03-21T06:05:29;13.10;96.10
75824;DHT22;64457;51.976;9.834;2023-03-21T06:07:56;13.20;95.90
75824;DHT22;64457;51.976;9.834;2023-03-21T06:10:23;13.10;96.30
75824;DHT22;64457;51.976;9.834;2023-03-21T06:12:52;13.00;96.10
75824;DHT22;64457;51.976;9.834;2023-03-21T06:15:19;12.90;96.40
75824;DHT22;64457;51.976;9.834;2023-03-21T06:17:46;13.10;96.50
75824;DHT22;64457;51.976;9.834;2023-03-21T06:20:13;13.30;96.20
75824;DHT22;64457;51.976;9.834;2023-03-21T06:22:41;13.40;96.00
75824;DHT22;64457;51.976;9.834;2023-03-21T06:25:08;13.50;95.80
75824;DHT22;64457;51.976;9.834;2023-03-21T06:27:36;13.50;95.70
75824;DHT22;64457;51.976;9.834;2023-03-21T06:30:06;13.40;95.60
75824;DHT22;64457;51.976;9.834;2023-03-21T06:32:33;13.20;96.10
75824;DHT22;64457;51.976;9.834;2023-03-21T06:35:00;13.20;96.20
75824;DHT22;64457;51.976;9.834;2023-03-21T06:37:28;13.30;96.00
75824;DHT22;64457;51.976;9.834;2023-03-21T06:39:55;13.10;96.10
75824;DHT22;64457;51.976;9.834;2023-03-21T06:42:22;13.00;96.40
75824;DHT22;64457;51.976;9.834;2023-03-21T06:44:49;13.10;96.40
75824;DHT22;64457;51.976;9.834;2023-03-21T06:47:18;13.20;96.10
75824;DHT22;64457;51.976;9.834;2023-03-21T06:49:45;13.30;96.00
75824;DHT22;64457;51.976;9.834;2023-03-21T06:52:12;13.30;95.90
75824;DHT22;64457;51.976;9.834;2023-03-21T06:54:39;13.00;96.40
75824;DHT22;64457;51.976;9.834;2023-03-21T06:57:07;12.80;96.80
75824;DHT22;64457;51.976;9.834;2023-03-21T06:59:34;12.80;96.70
75824;DHT22;64457;51.976;9.834;2023-03-21T07:02:02;12.60;96.80
75824;DHT22;64457;51.976;9.834;2023-03-21T07:04:30;12.50;97.10
75824;DHT22;64457;51.976;9.834;2023-03-21T07:06:57;12.60;97.30
75824;DHT22;64457;51.976;9.834;2023-03-21T07:09:25;12.70;96.80
75824;DHT22;64457;51.976;9.834;2023-03-21T07:11:52;13.00;96.60
75824;DHT22;64457;51.976;9.834;2023-03-21T07:14:20;13.10;96.50
75824;DHT22;64457;51.976;9.834;2023-03-21T07:16:48;13.30;96.40
75824;DHT22;64457;51.976;9.834;2023-03-21T07:19:15;13.30;96.00
75824;DHT22;64457;51.976;9.834;2023-03-21T07:21:44;13.30;96.10
75824;DHT22;64457;51.976;9.834;2023-03-21T07:24:11;13.10;96.30
75824;DHT22;64457;51.976;9.834;2023-03-21T07:26:38;13.20;96.30
75824;DHT22;64457;51.976;9.834;2023-03-21T07:29:05;13.30;96.20
75824;DHT22;64457;51.976;9.834;2023-03-21T07:31:33;13.30;96.20
75824;DHT22;64457;51.976;9.834;2023-03-21T07:34:01;13.10;96.30
75824;DHT22;64457;51.976;9.834;2023-03-21T07:36:28;12.90;96.60
75824;DHT22;64457;51.976;9.834;2023-03-21T07:38:56;12.90;96.70
75824;DHT22;64457;51.976;9.834;2023-03-21T07:41:23;13.00;96.70
75824;DHT22;64457;51.976;9.834;2023-03-21T07:43:51;13.10;96.60
75824;DHT22;64457;51.976;9.834;2023-03-21T07:46:18;13.20;96.60
75824;DHT22;64457;51.976;9.834;2023-03-21T07:48:45;13.40;96.40
75824;DHT22;64457;51.976;9.834;2023-03-21T07:51:12;13.50;96.10
75824;DHT22;64457;51.976;9.834;2023-03-21T07:53:39;13.70;95.70
75824;DHT22;64457;51.976;9.834;2023-03-21T07:56:09;13.50;96.00
75824;DHT22;64457;51.976;9.834;2023-03-21T07:58:37;13.40;96.00
75824;DHT22;64457;51.976;9.834;2023-03-21T08:01:04;13.40;96.20
75824;DHT22;64457;51.976;9.834;2023-03-21T08:03:32;13.60;96.10
75824;DHT22;64457;51.976;9.834;2023-03-21T08:05:59;13.90;95.80
75824;DHT22;64457;51.976;9.834;2023-03-21T08:08:26;14.20;95.40
75824;DHT22;64457;51.976;9.834;2023-03-21T08:10:53;14.20;95.10
75824;DHT22;64457;51.976;9.834;2023-03-21T08:13:22;14.30;95.20
75824;DHT22;64457;51.976;9.834;2023-03-21T08:15:50;14.40;95.10
75824;DHT22;64457;51.976;9.834;2023-03-21T08:18:17;14.40;95.10
75824;DHT22;64457;51.976;9.834;2023-03-21T08:20:45;14.30;95.20
75824;DHT22;64457;51.976;9.834;2023-03-21T08:23:17;14.30;95.20
75824;DHT22;64457;51.976;9.834;2023-03-21T08:25:44;14.30;95.50
75824;DHT22;64457;51.976;9.834;2023-03-21T08:28:11;14.50;95.20
75824;DHT22;64457;51.976;9.834;2023-03-21T08:30:40;14.60;94.90
75824;DHT22;64457;51.976;9.834;2023-03-21T08:33:07;14.60;95.10
75824;DHT22;64457;51.976;9.834;2023-03-21T08:35:34;14.70;94.90
75824;DHT22;64457;51.976;9.834;2023-03-21T08:38:02;15.00;94.50
75824;DHT22;64457;51.976;9.834;2023-03-21T08:40:29;15.10;94.20
75824;DHT22;64457;51.976;9.834;2023-03-21T08:42:57;15.40;94.20
75824;DHT22;64457;51.976;9.834;2023-03-21T08:45:24;15.60;93.40
75824;DHT22;64457;51.976;9.834;2023-03-21T08:47:53;15.50;93.40
75824;DHT22;64457;51.976;9.834;2023-03-21T08:50:23;15.10;93.90
75824;DHT22;64457;51.976;9.834;2023-03-21T08:52:54;15.00;94.20
75824;DHT22;64457;51.976;9.834;2023-03-21T08:55:21;15.10;94.20
75824;DHT22;64457;51.976;9.834;2023-03-21T08:57:48;15.20;93.90
75824;DHT22;64457;51.976;9.834;2023-03-21T09:00:17;14.60;94.30
75824;DHT22;64457;51.976;9.834;2023-03-21T09:02:47;14.70;94.80
75824;DHT22;64457;51.976;9.834;2023-03-21T09:05:17;14.90;94.50
75824;DHT22;64457;51.976;9.834;2023-03-21T09:07:45;15.00;94.40
75824;DHT22;64457;51.976;9.834;2023-03-21T09:10:17;15.20;94.30
75824;DHT22;64457;51.976;9.834;2023-03-21T09:12:45;15.20;94.40
75824;DHT22;64457;51.976;9.834;2023-03-21T09:15:13;15.30;94.30
75824;DHT22;64457;51.976;9.834;2023-03-21T09:17:40;15.80;93.90
75824;DHT22;64457;51.976;9.834;2023-03-21T09:20:10;16.20;93.10
75824;DHT22;64457;51.976;9.834;2023-03-21T09:22:45;16.50;92.40
75824;DHT22;64457;51.976;9.834;2023-03-21T09:25:13;16.40;93.40
75824;DHT22;64457;51.976;9.834;2023-03-21T09:27:40;16.50;92.40
75824;DHT22;64457;51.976;9.834;2023-03-21T09:30:11;16.70;92.70
75824;DHT22;64457;51.976;9.834;2023-03-21T09:32:39;16.90;92.40
75824;DHT22;64457;51.976;9.834;2023-03-21T09:35:07;17.20;91.90
75824;DHT22;64457;51.976;9.834;2023-03-21T09:37:36;17.10;91.60
75824;DHT22;64457;51.976;9.834;2023-03-21T09:40:14;17.10;92.40
75824;DHT22;64457;51.976;9.834;2023-03-21T09:42:51;17.00;92.00
75824;DHT22;64457;51.976;9.834;2023-03-21T09:45:31;17.10;92.00
75824;DHT22;64457;51.976;9.834;2023-03-21T09:48:04;16.90;92.20
75824;DHT22;64457;51.976;9.834;2023-03-21T09:50:34;16.90;92.20
75824;DHT22;64457;51.976;9.834;2023-03-21T09:53:08;17.10;92.10
75824;DHT22;64457;51.976;9.834;2023-03-21T09:55:42;17.10;92.30
75824;DHT22;64457;51.976;9.834;2023-03-21T09:58:18;17.20;91.90
75824;DHT22;64457;51.976;9.834;2023-03-21T10:00:53;17.20;91.80
75824;DHT22;64457;51.976;9.834;2023-03-21T10:03:29;17.20;91.40
75824;DHT22;64457;51.976;9.834;2023-03-21T10:06:03;17.30;91.50
75824;DHT22;64457;51.976;9.834;2023-03-21T10:08:33;17.20;91.40
75824;DHT22;64457;51.976;9.834;2023-03-21T10:11:10;17.20;91.90
75824;DHT22;64457;51.976;9.834;2023-03-21T10:13:43;17.30;91.40
75824;DHT22;64457;51.976;9.834;2023-03-21T10:16:15;17.50;91.40
75824;DHT22;64457;51.976;9.834;2023-03-21T10:18:45;17.60;90.80
75824;DHT22;64457;51.976;9.834;2023-03-21T10:21:19;17.60;90.80
75824;DHT22;64457;51.976;9.834;2023-03-21T10:23:48;17.40;91.30
75824;DHT22;64457;51.976;9.834;2023-03-21T10:26:18;17.50;91.10
75824;DHT22;64457;51.976;9.834;2023-03-21T10:28:48;17.40;91.10
75824;DHT22;64457;51.976;9.834;2023-03-21T10:31:17;17.10;90.50
75824;DHT22;64457;51.976;9.834;2023-03-21T10:33:47;16.60;91.50
75824;DHT22;64457;51.976;9.834;2023-03-21T10:36:18;16.80;91.70
75824;DHT22;64457;51.976;9.834;2023-03-21T10:38:49;17.10;91.00
75824;DHT22;64457;51.976;9.834;2023-03-21T10:41:20;17.30;90.90
75824;DHT22;64457;51.976;9.834;2023-03-21T10:44:04;17.00;90.20
75824;DHT22;64457;51.976;9.834;2023-03-21T10:46:33;16.60;90.90
75824;DHT22;64457;51.976;9.834;2023-03-21T10:49:01;16.50;91.40
75824;DHT22;64457;51.976;9.834;2023-03-21T10:51:30;16.50;91.30
75824;DHT22;64457;51.976;9.834;2023-03-21T10:54:02;16.40;91.30
75824;DHT22;64457;51.976;9.834;2023-03-21T10:56:35;16.40;91.60
75824;DHT22;64457;51.976;9.834;2023-03-21T10:59:05;16.20;91.80
75824;DHT22;64457;51.976;9.834;2023-03-21T11:01:36;15.90;92.00
75824;DHT22;64457;51.976;9.834;2023-03-21T11:04:08;15.70;92.70
75824;DHT22;64457;51.976;9.834;2023-03-21T11:06:38;15.50;93.20
75824;DHT22;64457;51.976;9.834;2023-03-21T11:09:08;15.70;93.70
75824;DHT22;64457;51.976;9.834;2023-03-21T11:11:48;15.80;93.70
75824;DHT22;64457;51.976;9.834;2023-03-21T11:14:26;15.90;93.50
75824;DHT22;64457;51.976;9.834;2023-03-21T11:16:58;16.20;93.30
75824;DHT22;64457;51.976;9.834;2023-03-21T11:19:29;16.70;93.00
75824;DHT22;64457;51.976;9.834;2023-03-21T11:21:58;16.80;93.10
75824;DHT22;64457;51.976;9.834;2023-03-21T11:24:29;17.10;93.00
75824;DHT22;64457;51.976;9.834;2023-03-21T11:26:59;17.20;92.30
75824;DHT22;64457;51.976;9.834;2023-03-21T11:29:29;17.10;92.20
75824;DHT22;64457;51.976;9.834;2023-03-21T11:31:59;17.10;92.60
75824;DHT22;64457;51.976;9.834;2023-03-21T11:34:32;17.50;92.10
75824;DHT22;64457;51.976;9.834;2023-03-21T11:37:18;17.60;92.10
75824;DHT22;64457;51.976;9.834;2023-03-21T11:39:46;17.80;91.80
75824;DHT22;64457;51.976;9.834;2023-03-21T11:42:31;17.90;92.10
75824;DHT22;64457;51.976;9.834;2023-03-21T11:45:03;17.90;91.70
75824;DHT22;64457;51.976;9.834;2023-03-21T11:47:36;18.10;91.30
75824;DHT22;64457;51.976;9.834;2023-03-21T11:50:18;17.90;91.10
75824;DHT22;64457;51.976;9.834;2023-03-21T11:52:53;17.90;91.20
75824;DHT22;64457;51.976;9.834;2023-03-21T11:55:34;17.60;91.70
75824;DHT22;64457;51.976;9.834;2023-03-21T11:58:28;17.50;91.80
75824;DHT22;64457;51.976;9.834;2023-03-21T12:01:04;17.50;92.10
75824;DHT22;64457;51.976;9.834;2023-03-21T12:03:51;17.40;92.80
75824;DHT22;64457;51.976;9.834;2023-03-21T12:06:27;16.90;93.20
75824;DHT22;64457;51.976;9.834;2023-03-21T12:09:35;16.70;93.90
75824;DHT22;64457;51.976;9.834;2023-03-21T12:12:25;16.50;94.10
75824;DHT22;64457;51.976;9.834;2023-03-21T12:15:01;16.10;95.00
75824;DHT22;64457;51.976;9.834;2023-03-21T12:17:39;16.10;95.20
75824;DHT22;64457;51.976;9.834;2023-03-21T12:20:37;16.30;95.10
75824;DHT22;64457;51.976;9.834;2023-03-21T12:23:24;16.10;94.50
75824;DHT22;64457;51.976;9.834;2023-03-21T12:26:07;16.10;95.20
75824;DHT22;64457;51.976;9.834;2023-03-21T12:28:50;15.90;95.30
75824;DHT22;64457;51.976;9.834;2023-03-21T12:31:30;15.40;95.90
75824;DHT22;64457;51.976;9.834;2023-03-21T12:34:15;15.30;96.00
75824;DHT22;64457;51.976;9.834;2023-03-21T12:36:58;15.40;96.10
75824;DHT22;64457;51.976;9.834;2023-03-21T12:39:34;15.70;95.50
75824;DHT22;64457;51.976;9.834;2023-03-21T12:45:22;16.10;94.70
75824;DHT22;64457;51.976;9.834;2023-03-21T12:47:53;16.00;94.30
75824;DHT22;64457;51.976;9.834;2023-03-21T12:50:38;16.10;94.90
75824;DHT22;64457;51.976;9.834;2023-03-21T12:53:12;16.00;94.50
75824;DHT22;64457;51.976;9.834;2023-03-21T12:55:46;15.90;95.00
75824;DHT22;64457;51.976;9.834;2023-03-21T12:58:17;16.10;95.30
75824;DHT22;64457;51.976;9.834;2023-03-21T13:00:50;16.30;94.70
75824;DHT22;64457;51.976;9.834;2023-03-21T13:03:23;16.30;94.40
75824;DHT22;64457;51.976;9.834;2023-03-21T13:05:57;16.20;94.70
75824;DHT22;64457;51.976;9.834;2023-03-21T13:08:28;16.30;94.70
75824;DHT22;64457;51.976;9.834;2023-03-21T13:10:57;16.20;94.70
75824;DHT22;64457;51.976;9.834;2023-03-21T13:13:30;15.80;95.40
75824;DHT22;64457;51.976;9.834;2023-03-21T13:16:06;15.70;95.40
75824;DHT22;64457;51.976;9.834;2023-03-21T13:18:51;15.70;95.60
75824;DHT22;64457;51.976;9.834;2023-03-21T13:21:40;15.70;95.80
75824;DHT22;64457;51.976;9.834;2023-03-21T13:24:31;15.70;95.50
75824;DHT22;64457;51.976;9.834;2023-03-21T13:27:02;15.80;95.70
75824;DHT22;64457;51.976;9.834;2023-03-21T13:29:33;15.40;95.90
75824;DHT22;64457;51.976;9.834;2023-03-21T13:32:15;15.20;96.60
75824;DHT22;64457;51.976;9.834;2023-03-21T13:34:55;14.90;97.00
75824;DHT22;64457;51.976;9.834;2023-03-21T13:37:25;15.10;97.30
75824;DHT22;64457;51.976;9.834;2023-03-21T13:39:59;15.40;97.00
75824;DHT22;64457;51.976;9.834;2023-03-21T13:42:34;15.60;97.00
75824;DHT22;64457;51.976;9.834;2023-03-21T13:45:09;15.70;97.00
75824;DHT22;64457;51.976;9.834;2023-03-21T13:47:50;15.70;97.00
75824;DHT22;64457;51.976;9.834;2023-03-21T13:50:32;15.80;97.10
75824;DHT22;64457;51.976;9.834;2023-03-21T13:53:31;16.00;97.50
75824;DHT22;64457;51.976;9.834;2023-03-21T13:56:19;16.20;97.60
75824;DHT22;64457;51.976;9.834;2023-03-21T13:58:58;16.10;97.90
75824;DHT22;64457;51.976;9.834;2023-03-21T14:01:30;16.00;98.10
75824;DHT22;64457;51.976;9.834;2023-03-21T14:04:06;16.00;98.20
75824;DHT22;64457;51.976;9.834;2023-03-21T14:06:42;16.10;98.10
75824;DHT22;64457;51.976;9.834;2023-03-21T14:09:19;15.90;97.90
75824;DHT22;64457;51.976;9.834;2023-03-21T14:11:50;15.90;97.90
75824;DHT22;64457;51.976;9.834;2023-03-21T14:14:19;15.70;97.90
75824;DHT22;64457;51.976;9.834;2023-03-21T14:16:47;15.70;98.10
75824;DHT22;64457;51.976;9.834;2023-03-21T14:19:14;15.70;97.80
75824;DHT22;64457;51.976;9.834;2023-03-21T14:21:49;15.50;98.60
75824;DHT22;64457;51.976;9.834;2023-03-21T14:24:19;15.50;98.10
75824;DHT22;64457;51.976;9.834;2023-03-21T14:26:48;15.20;98.30
75824;DHT22;64457;51.976;9.834;2023-03-21T14:29:24;15.20;98.70
75824;DHT22;64457;51.976;9.834;2023-03-21T14:31:52;15.30;98.70
75824;DHT22;64457;51.976;9.834;2023-03-21T14:34:21;15.20;98.70
75824;DHT22;64457;51.976;9.834;2023-03-21T14:36:50;15.30;98.70
75824;DHT22;64457;51.976;9.834;2023-03-21T14:39:20;15.30;98.50
75824;DHT22;64457;51.976;9.834;2023-03-21T14:41:50;15.40;98.60
75824;DHT22;64457;51.976;9.834;2023-03-21T14:44:21;15.70;98.40
75824;DHT22;64457;51.976;9.834;2023-03-21T14:46:59;15.60;98.00
75824;DHT22;64457;51.976;9.834;2023-03-21T14:49:28;15.30;98.30
75824;DHT22;64457;51.976;9.834;2023-03-21T14:51:59;15.20;98.50
75824;DHT22;64457;51.976;9.834;2023-03-21T14:54:28;15.40;98.60
75824;DHT22;64457;51.976;9.834;2023-03-21T14:56:59;15.60;98.40
75824;DHT22;64457;51.976;9.834;2023-03-21T14:59:31;15.70;98.20
75824;DHT22;64457;51.976;9.834;2023-03-21T15:02:01;15.40;98.40
75824;DHT22;64457;51.976;9.834;2023-03-21T15:04:30;15.40;98.80
75824;DHT22;64457;51.976;9.834;2023-03-21T15:07:00;15.40;98.70
75824;DHT22;64457;51.976;9.834;2023-03-21T15:09:31;15.40;98.10
75824;DHT22;64457;51.976;9.834;2023-03-21T15:12:03;15.50;98.20
75824;DHT22;64457;51.976;9.834;2023-03-21T15:14:34;15.60;98.00
75824;DHT22;64457;51.976;9.834;2023-03-21T15:17:03;15.70;97.70
75824;DHT22;64457;51.976;9.834;2023-03-21T15:19:34;15.90;97.50
75824;DHT22;64457;51.976;9.834;2023-03-21T15:22:11;16.10;97.40
75824;DHT22;64457;51.976;9.834;2023-03-21T15:24:43;16.00;97.60
75824;DHT22;64457;51.976;9.834;2023-03-21T15:27:15;15.80;97.70
75824;DHT22;64457;51.976;9.834;2023-03-21T15:29:44;15.60;98.00
75824;DHT22;64457;51.976;9.834;2023-03-21T15:32:14;15.70;97.90
75824;DHT22;64457;51.976;9.834;2023-03-21T15:34:43;15.80;97.30
75824;DHT22;64457;51.976;9.834;2023-03-21T15:37:17;16.00;97.50
75824;DHT22;64457;51.976;9.834;2023-03-21T15:39:48;15.80;97.90
75824;DHT22;64457;51.976;9.834;2023-03-21T15:42:26;15.80;97.80
75824;DHT22;64457;51.976;9.834;2023-03-21T15:44:57;15.90;97.50
75824;DHT22;64457;51.976;9.834;2023-03-21T15:47:41;15.80;97.20
75824;DHT22;64457;51.976;9.834;2023-03-21T15:50:23;15.80;97.60
75824;DHT22;64457;51.976;9.834;2023-03-21T15:52:55;15.70;97.40
75824;DHT22;64457;51.976;9.834;2023-03-21T15:55:27;15.70;97.50
75824;DHT22;64457;51.976;9.834;2023-03-21T15:58:03;15.70;97.20
75824;DHT22;64457;51.976;9.834;2023-03-21T16:00:37;15.80;97.20
75824;DHT22;64457;51.976;9.834;2023-03-21T16:03:09;15.70;97.40